Arneckeville, Texas
Current Conditions -  °F | °C
As of 9:51 AM on Thursday 27 Nov 2014 (Local Time) from KVCT Reporting Station
Clear Clear  
Wind Chill: 60°   Ceiling: Unl
Heat Index: 60°   Visibility: 10mi
Dew Point: 38°   Wind: 14mph
Humidity: 44%   Direction: 60°ENE
Pressure: 30.5"   Gusts: 24mph
Location:  29.0941°N, 97.191°W
Report Text: KVCT 271551Z 06012G21KT 10SM CLR 16/03 A3050 RMK AO2 SLP327 T01560033
Loading
Personal Weather Stations






























Interactive Weather Map New forecast layout! Learn more

10-Day Weather Forecast

Advertisements
Track Severe Weather on mobile